sensor_id;sensor_type;location;lat;lon;timestamp;pressure;altitude;pressure_sealevel;temperature;humidity
68871;BME280;55906;52.278;6.808;2022-12-13T00:02:20;101265.25;;;-1.52;79.08
68871;BME280;55906;52.278;6.808;2022-12-13T00:04:47;101269.38;;;-1.54;78.89
68871;BME280;55906;52.278;6.808;2022-12-13T00:07:13;101255.34;;;-1.57;79.25
68871;BME280;55906;52.278;6.808;2022-12-13T00:09:40;101260.63;;;-1.56;79.63
68871;BME280;55906;52.278;6.808;2022-12-13T00:12:08;101259.84;;;-1.55;80.24
68871;BME280;55906;52.278;6.808;2022-12-13T00:14:35;101258.81;;;-1.57;79.72
68871;BME280;55906;52.278;6.808;2022-12-13T00:17:02;101257.03;;;-1.58;79.59
68871;BME280;55906;52.278;6.808;2022-12-13T00:19:28;101253.44;;;-1.60;79.68
68871;BME280;55906;52.278;6.808;2022-12-13T00:21:55;101249.03;;;-1.61;79.85
68871;BME280;55906;52.278;6.808;2022-12-13T00:24:22;101248.81;;;-1.64;79.49
68871;BME280;55906;52.278;6.808;2022-12-13T00:26:48;101254.63;;;-1.67;79.34
68871;BME280;55906;52.278;6.808;2022-12-13T00:29:16;101244.94;;;-1.69;79.67
68871;BME280;55906;52.278;6.808;2022-12-13T00:31:43;101252.56;;;-1.71;79.17
68871;BME280;55906;52.278;6.808;2022-12-13T00:34:09;101244.47;;;-1.75;78.81
68871;BME280;55906;52.278;6.808;2022-12-13T00:36:39;101247.94;;;-1.75;78.87
68871;BME280;55906;52.278;6.808;2022-12-13T00:39:06;101247.03;;;-1.75;79.12
68871;BME280;55906;52.278;6.808;2022-12-13T00:41:34;101251.16;;;-1.77;78.65
68871;BME280;55906;52.278;6.808;2022-12-13T00:44:03;101244.88;;;-1.81;79.21
68871;BME280;55906;52.278;6.808;2022-12-13T00:46:31;101243.84;;;-1.83;78.80
68871;BME280;55906;52.278;6.808;2022-12-13T00:49:00;101236.13;;;-1.83;78.92
68871;BME280;55906;52.278;6.808;2022-12-13T00:51:28;101239.47;;;-1.84;79.16
68871;BME280;55906;52.278;6.808;2022-12-13T00:53:55;101242.81;;;-1.85;78.98
68871;BME280;55906;52.278;6.808;2022-12-13T00:56:25;101238.31;;;-1.87;78.51
68871;BME280;55906;52.278;6.808;2022-12-13T00:58:53;101242.56;;;-1.88;78.46
68871;BME280;55906;52.278;6.808;2022-12-13T01:01:23;101238.97;;;-1.90;78.37
68871;BME280;55906;52.278;6.808;2022-12-13T01:03:52;101236.16;;;-1.93;78.45
68871;BME280;55906;52.278;6.808;2022-12-13T01:06:22;101231.66;;;-1.96;78.80
68871;BME280;55906;52.278;6.808;2022-12-13T01:08:49;101231.53;;;-1.97;79.04
68871;BME280;55906;52.278;6.808;2022-12-13T01:11:16;101232.28;;;-1.98;78.34
68871;BME280;55906;52.278;6.808;2022-12-13T01:13:43;101230.38;;;-2.01;78.66
68871;BME280;55906;52.278;6.808;2022-12-13T01:16:11;101224.19;;;-2.03;78.35
68871;BME280;55906;52.278;6.808;2022-12-13T01:18:39;101233.34;;;-2.06;78.74
68871;BME280;55906;52.278;6.808;2022-12-13T01:21:09;101227.44;;;-2.05;78.69
68871;BME280;55906;52.278;6.808;2022-12-13T01:23:37;101222.91;;;-2.08;78.67
68871;BME280;55906;52.278;6.808;2022-12-13T01:26:06;101231.44;;;-2.09;78.23
68871;BME280;55906;52.278;6.808;2022-12-13T01:28:34;101227.81;;;-2.11;78.18
68871;BME280;55906;52.278;6.808;2022-12-13T01:31:03;101224.09;;;-2.14;78.77
68871;BME280;55906;52.278;6.808;2022-12-13T01:33:31;101235.19;;;-2.15;78.95
68871;BME280;55906;52.278;6.808;2022-12-13T01:35:59;101233.50;;;-2.15;78.88
68871;BME280;55906;52.278;6.808;2022-12-13T01:38:28;101234.28;;;-2.16;78.78
68871;BME280;55906;52.278;6.808;2022-12-13T01:40:55;101236.59;;;-2.19;78.27
68871;BME280;55906;52.278;6.808;2022-12-13T01:43:24;101236.34;;;-2.22;78.47
68871;BME280;55906;52.278;6.808;2022-12-13T01:45:51;101236.47;;;-2.20;78.77
68871;BME280;55906;52.278;6.808;2022-12-13T01:48:20;101239.84;;;-2.21;78.54
68871;BME280;55906;52.278;6.808;2022-12-13T01:50:52;101239.72;;;-2.23;78.21
68871;BME280;55906;52.278;6.808;2022-12-13T01:53:25;101243.06;;;-2.24;78.34
68871;BME280;55906;52.278;6.808;2022-12-13T01:55:56;101238.69;;;-2.25;78.13
68871;BME280;55906;52.278;6.808;2022-12-13T01:58:23;101232.38;;;-2.29;78.48
68871;BME280;55906;52.278;6.808;2022-12-13T02:00:50;101237.66;;;-2.27;78.06
68871;BME280;55906;52.278;6.808;2022-12-13T02:03:20;101229.03;;;-2.28;78.42
68871;BME280;55906;52.278;6.808;2022-12-13T02:05:52;101228.78;;;-2.31;77.75
68871;BME280;55906;52.278;6.808;2022-12-13T02:08:22;101234.69;;;-2.32;78.09
68871;BME280;55906;52.278;6.808;2022-12-13T02:10:49;101238.94;;;-2.32;77.76
68871;BME280;55906;52.278;6.808;2022-12-13T02:13:17;101236.25;;;-2.34;78.13
68871;BME280;55906;52.278;6.808;2022-12-13T02:15:50;101228.28;;;-2.37;77.54
68871;BME280;55906;52.278;6.808;2022-12-13T02:18:34;101232.53;;;-2.37;78.08
68871;BME280;55906;52.278;6.808;2022-12-13T02:21:14;101228.91;;;-2.39;78.15
68871;BME280;55906;52.278;6.808;2022-12-13T02:24:11;101221.72;;;-2.43;78.33
68871;BME280;55906;52.278;6.808;2022-12-13T02:26:47;101224.03;;;-2.46;77.81
68871;BME280;55906;52.278;6.808;2022-12-13T02:29:51;101228.94;;;-2.49;78.00
68871;BME280;55906;52.278;6.808;2022-12-13T02:32:29;101232.28;;;-2.50;77.45
68871;BME280;55906;52.278;6.808;2022-12-13T02:35:02;101232.28;;;-2.50;77.90
68871;BME280;55906;52.278;6.808;2022-12-13T02:37:39;101224.31;;;-2.53;78.33
68871;BME280;55906;52.278;6.808;2022-12-13T02:40:17;101226.50;;;-2.58;78.02
68871;BME280;55906;52.278;6.808;2022-12-13T02:42:49;101222.25;;;-2.58;78.00
68871;BME280;55906;52.278;6.808;2022-12-13T02:45:22;101216.19;;;-2.58;78.27
68871;BME280;55906;52.278;6.808;2022-12-13T02:47:55;101212.44;;;-2.62;78.14
68871;BME280;55906;52.278;6.808;2022-12-13T02:50:23;101212.44;;;-2.62;77.85
68871;BME280;55906;52.278;6.808;2022-12-13T02:52:51;101214.09;;;-2.62;77.48
68871;BME280;55906;52.278;6.808;2022-12-13T02:55:20;101223.50;;;-2.63;77.88
68871;BME280;55906;52.278;6.808;2022-12-13T02:57:46;101222.47;;;-2.65;77.49
68871;BME280;55906;52.278;6.808;2022-12-13T03:00:16;101222.47;;;-2.65;77.71
68871;BME280;55906;52.278;6.808;2022-12-13T03:02:57;101217.19;;;-2.66;78.26
68871;BME280;55906;52.278;6.808;2022-12-13T03:05:33;101223.13;;;-2.67;77.82
68871;BME280;55906;52.278;6.808;2022-12-13T03:08:21;101219.53;;;-2.69;77.61
68871;BME280;55906;52.278;6.808;2022-12-13T03:10:56;101216.81;;;-2.71;77.58
68871;BME280;55906;52.278;6.808;2022-12-13T03:13:29;101220.28;;;-2.70;78.08
68871;BME280;55906;52.278;6.808;2022-12-13T03:16:06;101208.84;;;-2.74;77.44
68871;BME280;55906;52.278;6.808;2022-12-13T03:18:36;101214.75;;;-2.75;78.16
68871;BME280;55906;52.278;6.808;2022-12-13T03:21:05;101211.94;;;-2.78;77.65
68871;BME280;55906;52.278;6.808;2022-12-13T03:23:33;101208.44;;;-2.78;77.91
68871;BME280;55906;52.278;6.808;2022-12-13T03:26:04;101214.38;;;-2.79;77.96
68871;BME280;55906;52.278;6.808;2022-12-13T03:28:30;101214.25;;;-2.81;78.28
68871;BME280;55906;52.278;6.808;2022-12-13T03:30:57;101216.56;;;-2.84;78.06
68871;BME280;55906;52.278;6.808;2022-12-13T03:33:24;101216.56;;;-2.84;77.73
68871;BME280;55906;52.278;6.808;2022-12-13T03:35:52;101207.69;;;-2.87;78.26
68871;BME280;55906;52.278;6.808;2022-12-13T03:38:18;101208.72;;;-2.85;77.93
68871;BME280;55906;52.278;6.808;2022-12-13T03:40:45;101206.66;;;-2.90;77.61
68871;BME280;55906;52.278;6.808;2022-12-13T03:43:12;101208.31;;;-2.90;78.08
68871;BME280;55906;52.278;6.808;2022-12-13T03:45:39;101205.75;;;-2.90;77.71
68871;BME280;55906;52.278;6.808;2022-12-13T03:48:05;101207.41;;;-2.91;77.48
68871;BME280;55906;52.278;6.808;2022-12-13T03:50:32;101199.44;;;-2.94;77.69
68871;BME280;55906;52.278;6.808;2022-12-13T03:53:01;101207.03;;;-2.95;77.97
68871;BME280;55906;52.278;6.808;2022-12-13T03:55:28;101208.59;;;-2.97;77.40
68871;BME280;55906;52.278;6.808;2022-12-13T03:57:55;101209.09;;;-3.01;77.21
68871;BME280;55906;52.278;6.808;2022-12-13T04:00:22;101211.53;;;-3.03;77.81
68871;BME280;55906;52.278;6.808;2022-12-13T04:02:49;101208.84;;;-3.04;77.78
68871;BME280;55906;52.278;6.808;2022-12-13T04:05:15;101212.94;;;-3.06;77.65
68871;BME280;55906;52.278;6.808;2022-12-13T04:07:42;101207.53;;;-3.09;77.55
68871;BME280;55906;52.278;6.808;2022-12-13T04:10:11;101210.13;;;-3.09;78.10
68871;BME280;55906;52.278;6.808;2022-12-13T04:12:37;101202.91;;;-3.13;78.03
68871;BME280;55906;52.278;6.808;2022-12-13T04:15:22;101207.91;;;-3.15;77.71
68871;BME280;55906;52.278;6.808;2022-12-13T04:17:48;101199.31;;;-3.15;77.81
68871;BME280;55906;52.278;6.808;2022-12-13T04:20:15;101207.03;;;-3.15;78.61
68871;BME280;55906;52.278;6.808;2022-12-13T04:22:42;101200.06;;;-3.16;77.74
68871;BME280;55906;52.278;6.808;2022-12-13T04:25:10;101206.75;;;-3.18;77.69
68871;BME280;55906;52.278;6.808;2022-12-13T04:27:38;101198.91;;;-3.20;77.57
68871;BME280;55906;52.278;6.808;2022-12-13T04:30:06;101199.81;;;-3.19;77.73
68871;BME280;55906;52.278;6.808;2022-12-13T04:32:33;101203.16;;;-3.20;78.41
68871;BME280;55906;52.278;6.808;2022-12-13T04:35:00;101198.91;;;-3.20;78.13
68871;BME280;55906;52.278;6.808;2022-12-13T04:37:27;101189.41;;;-3.21;78.50
68871;BME280;55906;52.278;6.808;2022-12-13T04:39:53;101193.50;;;-3.23;78.30
68871;BME280;55906;52.278;6.808;2022-12-13T04:42:20;101195.19;;;-3.24;78.68
68871;BME280;55906;52.278;6.808;2022-12-13T04:44:49;101195.31;;;-3.22;78.57
68871;BME280;55906;52.278;6.808;2022-12-13T04:47:15;101195.94;;;-3.25;78.49
68871;BME280;55906;52.278;6.808;2022-12-13T04:49:42;101187.84;;;-3.29;77.98
68871;BME280;55906;52.278;6.808;2022-12-13T04:52:09;101193.88;;;-3.29;78.48
68871;BME280;55906;52.278;6.808;2022-12-13T04:54:36;101182.69;;;-3.29;78.10
68871;BME280;55906;52.278;6.808;2022-12-13T04:57:04;101186.31;;;-3.27;78.67
68871;BME280;55906;52.278;6.808;2022-12-13T04:59:32;101185.41;;;-3.28;78.82
68871;BME280;55906;52.278;6.808;2022-12-13T05:02:00;101176.16;;;-3.26;78.23
68871;BME280;55906;52.278;6.808;2022-12-13T05:04:27;101183.88;;;-3.26;78.43
68871;BME280;55906;52.278;6.808;2022-12-13T05:06:53;101187.22;;;-3.27;78.92
68871;BME280;55906;52.278;6.808;2022-12-13T05:09:20;101185.66;;;-3.25;78.63
68871;BME280;55906;52.278;6.808;2022-12-13T05:11:46;101187.22;;;-3.27;78.32
68871;BME280;55906;52.278;6.808;2022-12-13T05:14:13;101189.91;;;-3.25;78.62
68871;BME280;55906;52.278;6.808;2022-12-13T05:16:40;101186.31;;;-3.27;78.11
68871;BME280;55906;52.278;6.808;2022-12-13T05:19:08;101177.56;;;-3.29;78.00
68871;BME280;55906;52.278;6.808;2022-12-13T05:21:34;101179.22;;;-3.30;78.55
68871;BME280;55906;52.278;6.808;2022-12-13T05:24:01;101185.28;;;-3.29;78.59
68871;BME280;55906;52.278;6.808;2022-12-13T05:26:28;101181.81;;;-3.30;78.49
68871;BME280;55906;52.278;6.808;2022-12-13T05:28:55;101181.81;;;-3.30;78.03
68871;BME280;55906;52.278;6.808;2022-12-13T05:31:22;101178.72;;;-3.36;77.62
68871;BME280;55906;52.278;6.808;2022-12-13T05:33:48;101182.81;;;-3.38;78.46
68871;BME280;55906;52.278;6.808;2022-12-13T05:36:17;101184.50;;;-3.38;78.63
68871;BME280;55906;52.278;6.808;2022-12-13T05:38:43;101185.38;;;-3.38;78.31
68871;BME280;55906;52.278;6.808;2022-12-13T05:41:13;101190.53;;;-3.38;78.36
68871;BME280;55906;52.278;6.808;2022-12-13T05:43:40;101193.09;;;-3.38;78.75
68871;BME280;55906;52.278;6.808;2022-12-13T05:46:07;101177.41;;;-3.41;78.27
68871;BME280;55906;52.278;6.808;2022-12-13T05:48:34;101172.28;;;-3.41;78.36
68871;BME280;55906;52.278;6.808;2022-12-13T05:51:00;101170.59;;;-3.40;78.62
68871;BME280;55906;52.278;6.808;2022-12-13T05:53:28;101173.94;;;-3.41;78.34
68871;BME280;55906;52.278;6.808;2022-12-13T05:55:58;101174.84;;;-3.41;78.92
68871;BME280;55906;52.278;6.808;2022-12-13T05:58:24;101182.56;;;-3.41;78.99
68871;BME280;55906;52.278;6.808;2022-12-13T06:00:51;101181.78;;;-3.40;78.87
68871;BME280;55906;52.278;6.808;2022-12-13T06:03:18;101179.22;;;-3.40;78.40
68871;BME280;55906;52.278;6.808;2022-12-13T06:05:44;101179.22;;;-3.40;78.70
68871;BME280;55906;52.278;6.808;2022-12-13T06:08:11;101190.41;;;-3.39;78.48
68871;BME280;55906;52.278;6.808;2022-12-13T06:10:39;101184.34;;;-3.40;78.78
68871;BME280;55906;52.278;6.808;2022-12-13T06:13:06;101184.34;;;-3.40;78.11
68871;BME280;55906;52.278;6.808;2022-12-13T06:15:32;101182.56;;;-3.41;78.55
68871;BME280;55906;52.278;6.808;2022-12-13T06:17:59;101177.28;;;-3.42;78.13
68871;BME280;55906;52.278;6.808;2022-12-13T06:20:25;101182.56;;;-3.41;78.40
68871;BME280;55906;52.278;6.808;2022-12-13T06:22:52;101182.28;;;-3.44;78.24
68871;BME280;55906;52.278;6.808;2022-12-13T06:25:19;101177.66;;;-3.48;78.28
68871;BME280;55906;52.278;6.808;2022-12-13T06:27:47;101186.28;;;-3.47;78.63
68871;BME280;55906;52.278;6.808;2022-12-13T06:30:14;101181.63;;;-3.51;78.74
68871;BME280;55906;52.278;6.808;2022-12-13T06:32:41;101176.63;;;-3.50;78.59
68871;BME280;55906;52.278;6.808;2022-12-13T06:35:07;101179.97;;;-3.51;78.38
68871;BME280;55906;52.278;6.808;2022-12-13T06:37:34;101175.72;;;-3.50;78.60
68871;BME280;55906;52.278;6.808;2022-12-13T06:40:01;101174.19;;;-3.48;78.77
68871;BME280;55906;52.278;6.808;2022-12-13T06:42:28;101173.28;;;-3.49;78.22
68871;BME280;55906;52.278;6.808;2022-12-13T06:44:57;101183.56;;;-3.49;78.68
68871;BME280;55906;52.278;6.808;2022-12-13T06:47:27;101183.56;;;-3.49;78.43
68871;BME280;55906;52.278;6.808;2022-12-13T06:49:53;101179.97;;;-3.51;78.34
68871;BME280;55906;52.278;6.808;2022-12-13T06:52:20;101173.91;;;-3.51;78.73
68871;BME280;55906;52.278;6.808;2022-12-13T06:54:47;101173.66;;;-3.55;78.89
68871;BME280;55906;52.278;6.808;2022-12-13T06:57:14;101172.13;;;-3.52;79.00
68871;BME280;55906;52.278;6.808;2022-12-13T06:59:41;101164.53;;;-3.51;78.91
68871;BME280;55906;52.278;6.808;2022-12-13T07:02:09;101168.91;;;-3.50;78.89
68871;BME280;55906;52.278;6.808;2022-12-13T07:04:36;101165.56;;;-3.49;79.51
68871;BME280;55906;52.278;6.808;2022-12-13T07:07:02;101176.88;;;-3.47;79.19
68871;BME280;55906;52.278;6.808;2022-12-13T07:09:30;101179.59;;;-3.45;79.66
68871;BME280;55906;52.278;6.808;2022-12-13T07:11:57;101173.53;;;-3.46;79.17
68871;BME280;55906;52.278;6.808;2022-12-13T07:14:24;101174.84;;;-3.41;79.35
68871;BME280;55906;52.278;6.808;2022-12-13T07:16:51;101173.81;;;-3.43;78.90
68871;BME280;55906;52.278;6.808;2022-12-13T07:19:19;101182.16;;;-3.45;78.88
68871;BME280;55906;52.278;6.808;2022-12-13T07:21:46;101177.53;;;-3.49;78.84
68871;BME280;55906;52.278;6.808;2022-12-13T07:24:13;101176.88;;;-3.47;78.74
68871;BME280;55906;52.278;6.808;2022-12-13T07:26:39;101173.28;;;-3.49;78.60
68871;BME280;55906;52.278;6.808;2022-12-13T07:29:06;101165.44;;;-3.50;78.21
68871;BME280;55906;52.278;6.808;2022-12-13T07:31:33;101178.28;;;-3.50;78.31
68871;BME280;55906;52.278;6.808;2022-12-13T07:34:00;101170.44;;;-3.52;78.60
68871;BME280;55906;52.278;6.808;2022-12-13T07:36:28;101174.81;;;-3.51;78.57
68871;BME280;55906;52.278;6.808;2022-12-13T07:38:56;101179.97;;;-3.51;78.62
68871;BME280;55906;52.278;6.808;2022-12-13T07:41:24;101179.19;;;-3.50;78.78
68871;BME280;55906;52.278;6.808;2022-12-13T07:43:51;101176.00;;;-3.47;78.65
68871;BME280;55906;52.278;6.808;2022-12-13T07:46:18;101182.94;;;-3.46;78.45
68871;BME280;55906;52.278;6.808;2022-12-13T07:48:44;101181.38;;;-3.44;78.30
68871;BME280;55906;52.278;6.808;2022-12-13T07:51:11;101174.56;;;-3.44;78.01
68871;BME280;55906;52.278;6.808;2022-12-13T07:53:40;101182.16;;;-3.45;78.21
68871;BME280;55906;52.278;6.808;2022-12-13T07:56:08;101178.94;;;-3.43;78.55
68871;BME280;55906;52.278;6.808;2022-12-13T07:58:35;101182.19;;;-3.35;78.50
68871;BME280;55906;52.278;6.808;2022-12-13T08:01:03;101186.19;;;-3.18;79.13
68871;BME280;55906;52.278;6.808;2022-12-13T08:03:30;101186.31;;;-2.86;77.86
68871;BME280;55906;52.278;6.808;2022-12-13T08:05:58;101182.34;;;-2.52;77.40
68871;BME280;55906;52.278;6.808;2022-12-13T08:08:25;101182.50;;;-2.19;76.01
68871;BME280;55906;52.278;6.808;2022-12-13T08:10:53;101181.59;;;-1.87;75.37
68871;BME280;55906;52.278;6.808;2022-12-13T08:13:20;101178.81;;;-1.69;75.19
68871;BME280;55906;52.278;6.808;2022-12-13T08:15:47;101172.81;;;-1.57;74.64
68871;BME280;55906;52.278;6.808;2022-12-13T08:18:13;101174.50;;;-1.58;75.11
68871;BME280;55906;52.278;6.808;2022-12-13T08:20:40;101171.88;;;-1.48;75.53
68871;BME280;55906;52.278;6.808;2022-12-13T08:23:06;101178.63;;;-1.38;75.34
68871;BME280;55906;52.278;6.808;2022-12-13T08:25:33;101182.75;;;-1.30;75.21
68871;BME280;55906;52.278;6.808;2022-12-13T08:28:01;101178.19;;;-1.22;75.03
68871;BME280;55906;52.278;6.808;2022-12-13T08:30:29;101187.53;;;-1.13;75.20
68871;BME280;55906;52.278;6.808;2022-12-13T08:32:55;101178.97;;;-0.90;74.37
68871;BME280;55906;52.278;6.808;2022-12-13T08:35:22;101188.69;;;-0.52;74.18
68871;BME280;55906;52.278;6.808;2022-12-13T08:37:49;101190.41;;;-0.18;73.58
68871;BME280;55906;52.278;6.808;2022-12-13T08:40:16;101181.97;;;0.20;72.77
68871;BME280;55906;52.278;6.808;2022-12-13T08:42:42;101185.47;;;0.57;72.73
68871;BME280;55906;52.278;6.808;2022-12-13T08:45:11;101185.75;;;0.98;71.86
68871;BME280;55906;52.278;6.808;2022-12-13T08:47:37;101182.72;;;1.42;72.09
68871;BME280;55906;52.278;6.808;2022-12-13T08:50:05;101185.16;;;1.91;70.40
68871;BME280;55906;52.278;6.808;2022-12-13T08:52:32;101180.13;;;2.34;70.28
68871;BME280;55906;52.278;6.808;2022-12-13T08:54:59;101183.28;;;2.70;69.49
68871;BME280;55906;52.278;6.808;2022-12-13T08:57:26;101184.53;;;3.04;69.35
68871;BME280;55906;52.278;6.808;2022-12-13T08:59:53;101182.34;;;3.40;69.10
68871;BME280;55906;52.278;6.808;2022-12-13T09:02:21;101181.44;;;3.83;68.68
68871;BME280;55906;52.278;6.808;2022-12-13T09:04:48;101174.75;;;4.18;68.81
68871;BME280;55906;52.278;6.808;2022-12-13T09:07:14;101174.66;;;4.47;67.85
68871;BME280;55906;52.278;6.808;2022-12-13T09:09:41;101180.41;;;4.89;67.46
68871;BME280;55906;52.278;6.808;2022-12-13T09:12:08;101174.47;;;5.24;66.71
68871;BME280;55906;52.278;6.808;2022-12-13T09:14:34;101180.69;;;5.60;64.56
68871;BME280;55906;52.278;6.808;2022-12-13T09:17:01;101183.66;;;6.02;64.69
68871;BME280;55906;52.278;6.808;2022-12-13T09:19:29;101182.66;;;6.35;63.72
68871;BME280;55906;52.278;6.808;2022-12-13T09:21:56;101181.59;;;6.67;62.71
68871;BME280;55906;52.278;6.808;2022-12-13T09:24:22;101186.16;;;6.91;62.17
68871;BME280;55906;52.278;6.808;2022-12-13T09:26:49;101182.31;;;7.21;61.41
68871;BME280;55906;52.278;6.808;2022-12-13T09:29:16;101184.78;;;7.58;61.47
68871;BME280;55906;52.278;6.808;2022-12-13T09:31:42;101179.34;;;7.94;59.71
68871;BME280;55906;52.278;6.808;2022-12-13T09:34:09;101183.38;;;8.29;59.26
68871;BME280;55906;52.278;6.808;2022-12-13T09:36:38;101182.41;;;8.70;58.56
68871;BME280;55906;52.278;6.808;2022-12-13T09:39:05;101187.69;;;9.16;57.47
68871;BME280;55906;52.278;6.808;2022-12-13T09:41:33;101181.78;;;9.47;56.31
68871;BME280;55906;52.278;6.808;2022-12-13T09:44:04;101182.16;;;9.83;54.82
68871;BME280;55906;52.278;6.808;2022-12-13T09:46:33;101185.66;;;10.09;54.93
68871;BME280;55906;52.278;6.808;2022-12-13T09:49:04;101178.72;;;10.38;53.95
68871;BME280;55906;52.278;6.808;2022-12-13T09:51:33;101181.31;;;10.64;53.63
68871;BME280;55906;52.278;6.808;2022-12-13T09:54:01;101177.94;;;10.98;51.98
68871;BME280;55906;52.278;6.808;2022-12-13T09:56:28;101175.91;;;11.19;51.45
68871;BME280;55906;52.278;6.808;2022-12-13T09:58:55;101175.72;;;11.44;51.19
68871;BME280;55906;52.278;6.808;2022-12-13T10:01:22;101161.97;;;11.54;49.86
68871;BME280;55906;52.278;6.808;2022-12-13T10:03:51;101157.28;;;11.76;49.05
68871;BME280;55906;52.278;6.808;2022-12-13T10:06:20;101159.19;;;12.16;49.14
68871;BME280;55906;52.278;6.808;2022-12-13T10:08:48;101150.94;;;12.40;48.51
68871;BME280;55906;52.278;6.808;2022-12-13T10:11:19;101155.91;;;12.65;47.25
68871;BME280;55906;52.278;6.808;2022-12-13T10:13:50;101147.91;;;13.01;45.57
68871;BME280;55906;52.278;6.808;2022-12-13T10:16:26;101146.88;;;12.95;44.31
68871;BME280;55906;52.278;6.808;2022-12-13T10:18:54;101140.38;;;13.20;45.84
68871;BME280;55906;52.278;6.808;2022-12-13T10:21:26;101124.88;;;13.38;43.82
68871;BME280;55906;52.278;6.808;2022-12-13T10:23:54;101133.00;;;13.49;44.10
68871;BME280;55906;52.278;6.808;2022-12-13T10:26:23;101129.00;;;13.72;43.39
68871;BME280;55906;52.278;6.808;2022-12-13T10:29:00;101125.13;;;14.04;39.50
68871;BME280;55906;52.278;6.808;2022-12-13T10:31:28;101120.91;;;14.16;42.38
68871;BME280;55906;52.278;6.808;2022-12-13T10:33:56;101119.66;;;14.47;40.65
68871;BME280;55906;52.278;6.808;2022-12-13T10:36:33;101115.38;;;14.56;37.90
68871;BME280;55906;52.278;6.808;2022-12-13T10:39:02;101106.78;;;14.74;40.67
68871;BME280;55906;52.278;6.808;2022-12-13T10:41:35;101112.53;;;15.11;39.46
68871;BME280;55906;52.278;6.808;2022-12-13T10:44:08;101103.91;;;15.30;38.66
68871;BME280;55906;52.278;6.808;2022-12-13T10:46:38;101097.59;;;15.19;38.70
68871;BME280;55906;52.278;6.808;2022-12-13T10:49:14;101097.22;;;15.64;34.71
68871;BME280;55906;52.278;6.808;2022-12-13T10:51:41;101098.25;;;15.81;38.09
68871;BME280;55906;52.278;6.808;2022-12-13T10:54:14;101084.28;;;16.08;36.46
68871;BME280;55906;52.278;6.808;2022-12-13T10:56:47;101084.34;;;16.14;36.69
68871;BME280;55906;52.278;6.808;2022-12-13T10:59:25;101090.56;;;16.22;34.61
68871;BME280;55906;52.278;6.808;2022-12-13T11:01:53;101092.28;;;16.14;35.58
68871;BME280;55906;52.278;6.808;2022-12-13T11:04:23;101079.06;;;16.19;35.63
68871;BME280;55906;52.278;6.808;2022-12-13T11:06:52;101086.22;;;16.35;35.02
68871;BME280;55906;52.278;6.808;2022-12-13T11:09:24;101080.91;;;16.33;34.10
68871;BME280;55906;52.278;6.808;2022-12-13T11:11:55;101084.56;;;16.58;35.04
68871;BME280;55906;52.278;6.808;2022-12-13T11:14:25;101078.44;;;16.66;35.42
68871;BME280;55906;52.278;6.808;2022-12-13T11:16:55;101075.94;;;17.01;34.03
68871;BME280;55906;52.278;6.808;2022-12-13T11:19:25;101070.63;;;17.02;33.51
68871;BME280;55906;52.278;6.808;2022-12-13T11:21:55;101073.22;;;16.87;33.41
68871;BME280;55906;52.278;6.808;2022-12-13T11:24:24;101067.06;;;16.94;33.41
68871;BME280;55906;52.278;6.808;2022-12-13T11:26:58;101064.47;;;17.18;31.88
68871;BME280;55906;52.278;6.808;2022-12-13T11:29:58;101054.66;;;16.91;30.18
68871;BME280;55906;52.278;6.808;2022-12-13T11:32:36;101055.59;;;17.22;31.41
68871;BME280;55906;52.278;6.808;2022-12-13T11:35:13;101044.09;;;17.30;31.74
68871;BME280;55906;52.278;6.808;2022-12-13T11:37:47;101047.63;;;17.28;31.98
68871;BME280;55906;52.278;6.808;2022-12-13T11:40:17;101037.88;;;17.26;32.57
68871;BME280;55906;52.278;6.808;2022-12-13T11:42:50;101037.91;;;17.53;31.50
68871;BME280;55906;52.278;6.808;2022-12-13T11:45:21;101033.47;;;17.87;31.94
68871;BME280;55906;52.278;6.808;2022-12-13T11:47:58;101037.03;;;17.85;31.38
68871;BME280;55906;52.278;6.808;2022-12-13T11:50:29;101034.38;;;17.80;32.33
68871;BME280;55906;52.278;6.808;2022-12-13T11:52:59;101022.81;;;17.92;31.46
68871;BME280;55906;52.278;6.808;2022-12-13T11:55:35;101029.91;;;17.93;31.20
68871;BME280;55906;52.278;6.808;2022-12-13T11:58:11;101021.00;;;18.08;30.17
68871;BME280;55906;52.278;6.808;2022-12-13T12:00:44;101023.66;;;18.26;31.33
68871;BME280;55906;52.278;6.808;2022-12-13T12:03:16;101010.28;;;18.37;31.33
68871;BME280;55906;52.278;6.808;2022-12-13T12:05:49;101002.25;;;18.50;30.12
68871;BME280;55906;52.278;6.808;2022-12-13T12:08:21;101005.91;;;18.25;29.15
68871;BME280;55906;52.278;6.808;2022-12-13T12:11:08;101000.66;;;17.88;27.91
68871;BME280;55906;52.278;6.808;2022-12-13T12:13:41;101008.63;;;17.59;28.47
68871;BME280;55906;52.278;6.808;2022-12-13T12:16:23;101004.19;;;17.60;26.89
68871;BME280;55906;52.278;6.808;2022-12-13T12:18:51;101002.44;;;17.77;28.08
68871;BME280;55906;52.278;6.808;2022-12-13T12:21:26;100995.31;;;17.95;27.41
68871;BME280;55906;52.278;6.808;2022-12-13T12:24:07;100998.88;;;17.84;26.84
68871;BME280;55906;52.278;6.808;2022-12-13T12:26:41;100995.31;;;17.95;27.59
68871;BME280;55906;52.278;6.808;2022-12-13T12:29:42;101005.06;;;18.00;26.50
68871;BME280;55906;52.278;6.808;2022-12-13T12:32:17;101003.34;;;17.75;27.39
68871;BME280;55906;52.278;6.808;2022-12-13T12:34:53;100995.34;;;17.53;26.16
68871;BME280;55906;52.278;6.808;2022-12-13T12:37:27;100993.56;;;17.14;27.63
68871;BME280;55906;52.278;6.808;2022-12-13T12:40:18;100991.69;;;16.75;26.77
68871;BME280;55906;52.278;6.808;2022-12-13T12:42:56;100999.47;;;16.29;28.29
68871;BME280;55906;52.278;6.808;2022-12-13T12:45:44;101006.28;;;15.82;27.10
68871;BME280;55906;52.278;6.808;2022-12-13T12:48:27;101005.34;;;14.83;27.71
68871;BME280;55906;52.278;6.808;2022-12-13T12:51:02;101008.28;;;15.10;28.00
68871;BME280;55906;52.278;6.808;2022-12-13T12:53:39;101015.34;;;15.11;27.79
68871;BME280;55906;52.278;6.808;2022-12-13T12:56:19;101011.03;;;15.22;28.14
68871;BME280;55906;52.278;6.808;2022-12-13T12:58:55;101006.47;;;15.06;28.05
68871;BME280;55906;52.278;6.808;2022-12-13T13:01:38;101004.44;;;14.81;28.53
68871;BME280;55906;52.278;6.808;2022-12-13T13:04:13;101002.38;;;15.43;28.48